Latest Weather Observations for Burketown Airport

IDQ60801

Issued at 7:32 am EST Tuesday 27 October 2020 (issued every 10 minutes, with the page automatically refreshed every 10 minutes)

About weather observations | Map of weather stations | Latest weather observations for QLD | Other Formats
Station Details ID: 029077 Name: BURKETOWN AIRPORT Lat: -17.75 Lon: 139.54 Height: 5.7 m
Data from the previous 72 hours. | See also: Recent months at Burketown Airport
Date/Time
EST
Temp
°C
App
Temp
°C
Dew
Point
°C
Rel
Hum
%
Delta-T
°C
Wind Press
QNH
hPa
Press
MSL
hPa
Rain since
9am
mm
Dir  Spd
km/h
Gust
km/h
Spd
kts
Gust
kts
27/07:30am 25.7 22.0 10.3 38 8.6 SSE 20 26 11 14 1012.5 1012.4 0.2
27/07:00am 25.6 22.0 10.6 39 8.4 SSE 20 26 11 14 1011.9 1011.8 0.2
27/06:30am 25.3 22.1 11.1 41 8.0 SSE 19 24 10 13 1011.7 1011.6 0.2
27/06:00am 25.4 22.2 11.2 41 8.0 SSE 19 24 10 13 1011.7 1011.6 0.2
27/05:30am 25.6 22.4 11.4 41 8.0 SSE 19 24 10 13 1011.3 1011.2 0.2
27/05:00am 25.6 23.0 12.1 43 7.7 SE 17 22 9 12 1011.5 1011.4 0.2
27/04:30am 25.0 24.3 13.2 48 6.9 SE 9 15 5 8 1011.3 1011.2 0.2
27/04:00am 24.8 24.4 14.0 51 6.4 SSW 9 9 5 5 1011.1 1011.0 0.2
27/03:30am 24.9 24.1 14.1 51 6.4 E 11 15 6 8 1010.6 1010.5 0.2
27/03:00am 25.2 25.6 15.2 54 6.0 SSW 7 11 4 6 1011.2 1011.1 0.2
27/02:30am 25.7 25.4 13.2 46 7.3 SSW 7 9 4 5 1011.4 1011.3 0.2
27/02:00am 26.3 25.2 12.0 41 8.2 S 9 9 5 5 1011.9 1011.8 0.2
27/01:30am 27.0 25.3 11.1 37 9.0 S 11 13 6 7 1011.9 1011.8 0.2
27/01:00am 27.5 24.4 10.2 34 9.7 S 17 19 9 10 1011.7 1011.6 0.2
27/12:30am 27.9 24.4 10.1 33 10.0 S 19 26 10 14 1011.9 1011.8 0.2
27/12:00am 28.5 24.3 9.7 31 10.5 SSE 22 30 12 16 1011.9 1011.8 0.2
 
Date/Time
EST
Temp
°C
App
Temp
°C
Dew
Point
°C
Rel
Hum
%
Delta-T
°C
Wind Press
QNH
hPa
Press
MSL
hPa
Rain since
9am
mm
Dir  Spd
km/h
Gust
km/h
Spd
kts
Gust
kts
26/11:30pm 28.6 23.3 9.8 31 10.5 SSE 28 37 15 20 1011.6 1011.5 0.2
26/11:00pm 26.9 25.3 15.0 48 7.2 S 17 22 9 12 1011.4 1011.3 0.2
26/10:30pm 25.7 27.1 16.3 56 5.8 SSE 4 13 2 7 1011.0 1010.9 0.2
26/10:00pm 26.3 28.2 15.7 52 6.5 CALM 0 0 0 0 1010.5 1010.4 0.2
26/09:30pm 27.5 28.8 14.2 44 8.0 CALM 0 0 0 0 1010.3 1010.2 0.2
26/09:00pm 27.9 27.9 14.2 43 8.2 SW 7 9 4 5 1010.1 1010.0 0.2
26/08:30pm 28.6 28.9 14.4 41 8.6 WSW 6 7 3 4 1010.1 1010.0 0.2
26/08:00pm 28.6 30.7 16.2 47 7.7 CALM 0 0 0 0 1010.0 1009.9 0.2
26/07:30pm 29.4 31.0 14.8 41 8.9 CALM 0 0 0 0 1009.7 1009.6 0.2
26/07:00pm 30.8 31.1 14.4 36 10.0 N 6 7 3 4 1009.2 1009.1 0.2
26/06:30pm 32.1 32.0 13.8 33 11.1 NNW 7 9 4 5 1008.9 1008.8 0.2
26/06:00pm 32.9 32.1 13.0 30 12.0 NW 9 15 5 8 1008.3 1008.2 0.2
26/05:30pm 33.5 32.2 12.5 28 12.5 NNE 11 15 6 8 1008.1 1008.0 0.2
26/05:00pm 33.1 32.2 12.7 29 12.2 NNE 9 15 5 8 1008.0 1007.9 0.2
26/04:30pm 34.3 32.6 12.6 27 13.0 NNE 13 17 7 9 1008.0 1007.9 0.2
26/04:00pm 33.9 31.8 11.1 25 13.4 N 13 17 7 9 1008.3 1008.2 0.2
26/03:30pm 34.4 33.4 10.9 24 13.7 NNE 7 13 4 7 1008.4 1008.3 0.2
26/03:00pm 34.6 33.1 10.4 23 14.1 E 9 15 5 8 1008.6 1008.5 0.2
26/02:30pm 33.2 31.7 10.5 25 13.1 NNE 9 13 5 7 1008.9 1008.8 0.2
26/02:00pm 33.6 32.4 10.2 24 13.5 ESE 7 13 4 7 1009.3 1009.2 0.2
26/01:30pm 33.2 31.5 9.9 24 13.3 S 9 15 5 8 1009.5 1009.4 0.2
26/01:00pm 33.5 31.5 10.2 24 13.4 SE 11 24 6 13 1010.1 1010.0 0.2
26/12:30pm 32.8 31.0 9.6 24 13.2 ESE 9 17 5 9 1010.4 1010.3 0.2
26/12:00pm 33.0 29.7 9.7 24 13.3 ESE 17 24 9 13 1011.0 1010.9 0.2
26/11:30am 32.1 28.7 9.0 24 13.0 ESE 17 26 9 14 1011.4 1011.3 0.2
26/11:00am 32.2 28.4 9.1 24 13.0 ESE 19 26 10 14 1011.6 1011.5 0.2
26/10:30am 31.1 26.1 8.2 24 12.6 ESE 24 30 13 16 1011.8 1011.7 0.2
26/10:00am 29.4 24.2 9.0 28 11.3 ESE 26 33 14 18 1012.2 1012.1 0.0
26/09:30am 28.4 23.3 9.2 30 10.6 SE 26 35 14 19 1012.6 1012.5 0.0
26/09:00am 28.0 23.2 8.8 30 10.5 SE 24 32 13 17 1012.5 1012.4 0.0
26/08:30am 27.7 23.3 9.0 31 10.3 SE 22 30 12 16 1012.6 1012.5 0.0
26/08:00am 28.0 24.8 9.8 32 10.2 SSE 17 24 9 13 1012.6 1012.5 0.0
26/07:30am 27.0 23.6 10.7 36 9.2 SSE 19 26 10 14 1011.8 1011.7 0.0
26/07:00am 26.1 24.7 16.6 55 5.9 S 19 22 10 12 1011.4 1011.3 0.0
26/06:30am 25.6 25.2 18.8 66 4.3 S 19 24 10 13 1010.8 1010.7 0.0
26/06:00am 25.5 25.6 19.2 68 4.0 S 17 22 9 12 1010.3 1010.2 0.0
26/05:30am 25.3 26.8 19.7 71 3.6 S 11 15 6 8 1010.0 1009.9 0.0
26/05:00am 25.3 26.5 19.9 72 3.5 SSW 13 15 7 8 1009.5 1009.4 0.0
26/04:30am 24.6 26.2 20.7 79 2.6 WSW 13 15 7 8 1009.0 1008.9 0.0
26/04:00am 24.6 26.3 20.9 80 2.4 WNW 13 19 7 10 1008.8 1008.7 0.0
26/03:30am 24.9 26.4 20.6 77 2.8 SW 13 15 7 8 1009.1 1009.0 0.0
26/03:00am 24.5 26.1 21.4 83 2.1 WSW 15 19 8 10 1009.2 1009.1 0.0
26/02:30am 24.7 28.0 21.4 82 2.2 WNW 6 11 3 6 1009.3 1009.2 0.0
26/02:00am 25.0 27.3 20.7 77 2.8 W 9 11 5 6 1009.5 1009.4 0.0
26/01:30am 25.7 27.1 20.3 72 3.5 S 13 17 7 9 1009.9 1009.8 0.0
26/01:00am 25.7 26.0 20.5 73 3.4 S 19 26 10 14 1010.0 1009.9 0.0
26/12:30am 25.6 27.6 21.5 78 2.7 SSW 13 19 7 10 1010.2 1010.1 0.0
26/12:00am 25.1 28.5 22.0 83 2.1 SSW 7 9 4 5 1010.2 1010.1 0.0
 
Date/Time
EST
Temp
°C
App
Temp
°C
Dew
Point
°C
Rel
Hum
%
Delta-T
°C
Wind Press
QNH
hPa
Press
MSL
hPa
Rain since
9am
mm
Dir  Spd
km/h
Gust
km/h
Spd
kts
Gust
kts
25/11:30pm 25.1 29.5 21.4 80 2.4 CALM 0 0 0 0 1009.9 1009.8 0.0
25/11:00pm 25.2 27.9 21.3 79 2.6 NW 9 11 5 6 1010.3 1010.2 0.0
25/10:30pm 26.0 28.2 21.2 75 3.2 S 11 15 6 8 1010.1 1010.0 0.0
25/10:00pm 26.0 27.7 21.0 74 3.3 SSW 13 17 7 9 1009.6 1009.5 0.0
25/09:30pm 25.5 27.0 21.2 77 2.8 SW 15 22 8 12 1009.3 1009.2 0.0
25/09:00pm 25.8 26.2 20.6 73 3.4 SSW 19 28 10 15 1008.9 1008.8 0.0
25/08:30pm 24.3 25.3 21.0 82 2.2 NW 17 24 9 13 1008.9 1008.8 0.0
25/08:00pm 23.8 22.8 20.5 82 2.1 W 26 37 14 20 1010.2 1010.1 0.0
25/07:30pm 23.7 20.6 19.6 78 2.6 W 35 50 19 27 1009.5 1009.4 0.0
25/07:22pm 24.9 22.2 19.3 71 3.6 NW 32 41 17 22 1009.2 1009.1 0.0
25/07:00pm 26.9 23.1 19.0 62 5.1 NW 37 54 20 29 1008.9 1008.8 0.0
25/06:54pm 29.0 27.8 21.5 64 5.0 NW 30 54 16 29 1008.8 1008.7 0.0
25/06:30pm 29.7 30.5 22.4 65 5.0 N 22 30 12 16 1008.2 1008.1 0.0
25/06:00pm 30.1 30.4 22.3 63 5.3 N 24 32 13 17 1007.7 1007.6 0.0
25/05:30pm 31.8 32.7 21.9 55 6.7 N 20 26 11 14 1007.0 1006.9 0.0
25/05:00pm 33.3 34.4 22.4 52 7.5 NNE 20 26 11 14 1006.4 1006.3 0.0
25/04:30pm 33.7 33.8 21.8 49 8.1 NNE 24 30 13 16 1006.3 1006.2 0.0
25/04:00pm 33.3 33.2 21.5 50 8.0 NNE 24 30 13 16 1006.6 1006.5 0.0
25/03:30pm 36.0 36.4 19.0 36 11.2 N 15 22 8 12 1007.2 1007.1 0.0
25/03:00pm 34.8 35.1 18.0 37 10.9 N 13 20 7 11 1007.8 1007.7 0.0
25/02:30pm 35.3 36.2 20.0 40 10.2 N 15 22 8 12 1008.4 1008.3 0.0
25/02:00pm 35.7 36.5 17.4 33 11.8 NE 9 13 5 7 1008.9 1008.8 0.0
25/01:30pm 34.7 35.9 18.3 38 10.7 SW 9 20 5 11 1009.3 1009.2 0.0
25/01:00pm 34.2 35.2 18.7 40 10.1 S 11 20 6 11 1010.1 1010.0 0.0
25/12:30pm 34.3 34.9 19.5 41 9.8 SSW 15 26 8 14 1010.8 1010.7 0.0
25/12:00pm 32.8 35.0 20.3 47 8.3 SW 9 19 5 10 1011.3 1011.2 0.0
25/11:30am 32.7 34.7 19.9 46 8.5 WSW 9 17 5 9 1011.8 1011.7 0.0
25/11:00am 31.8 34.4 20.4 51 7.6 SSW 7 13 4 7 1012.1 1012.0 0.0
25/10:30am 30.5 32.6 20.1 53 6.9 WNW 9 15 5 8 1012.3 1012.2 0.0
25/10:00am 29.4 31.7 19.4 55 6.5 E 6 9 3 5 1012.6 1012.5 0.0
25/09:30am 28.8 30.7 19.7 58 5.9 S 9 20 5 11 1013.0 1012.9 0.0
25/09:00am 27.9 29.1 19.9 61 5.2 SSE 13 19 7 10 1013.1 1013.0 13.2
25/08:30am 27.7 29.3 20.8 66 4.6 SSE 13 19 7 10 1013.0 1012.9 13.2
25/08:00am 26.1 27.3 20.7 72 3.5 SSE 15 20 8 11 1012.5 1012.4 13.2
25/07:30am 24.9 25.4 20.8 78 2.7 SSE 19 24 10 13 1011.8 1011.7 13.2
25/07:00am 23.6 25.3 20.9 85 1.8 SSE 13 17 7 9 1011.4 1011.3 13.2
25/06:30am 22.6 25.0 20.9 90 1.1 SE 9 11 5 6 1010.8 1010.7 13.2
25/06:00am 22.4 24.5 20.9 91 1.0 S 11 13 6 7 1010.6 1010.5 13.2
25/05:30am 22.6 24.3 20.9 90 1.1 S 13 15 7 8 1010.0 1009.9 13.2
25/05:00am 22.9 24.9 20.8 88 1.4 SSE 11 15 6 8 1009.7 1009.6 13.2
25/04:30am 23.4 25.1 20.9 86 1.6 SSE 13 19 7 10 1009.1 1009.0 13.2
25/04:00am 23.6 24.9 20.9 85 1.8 SSE 15 17 8 9 1008.6 1008.5 13.2
25/03:30am 23.6 25.1 20.5 83 2.0 SSE 13 17 7 9 1008.4 1008.3 13.2
25/03:00am 23.5 24.9 20.4 83 2.0 S 13 17 7 9 1008.6 1008.5 13.2
25/02:30am 23.8 25.1 20.1 80 2.4 S 13 17 7 9 1008.9 1008.8 13.2
25/02:00am 24.1 25.3 19.8 77 2.8 SSW 13 17 7 9 1009.0 1008.9 13.2
25/01:30am 24.7 25.3 19.5 73 3.3 SW 15 22 8 12 1008.7 1008.6 13.2
25/01:00am 25.2 24.3 19.1 69 3.9 W 22 32 12 17 1008.1 1008.0 13.2
25/12:30am 25.3 25.1 19.7 71 3.6 NNW 20 30 11 16 1008.1 1008.0 13.2
25/12:00am 26.0 24.6 18.7 64 4.7 NW 24 32 13 17 1008.6 1008.5 13.2
 
Date/Time
EST
Temp
°C
App
Temp
°C
Dew
Point
°C
Rel
Hum
%
Delta-T
°C
Wind Press
QNH
hPa
Press
MSL
hPa
Rain since
9am
mm
Dir  Spd
km/h
Gust
km/h
Spd
kts
Gust
kts
24/11:30pm 24.8 24.1 20.3 76 2.9 NW 24 30 13 16 1009.6 1009.5 13.2
24/11:00pm 24.3 24.0 21.8 86 1.7 NNW 26 41 14 22 1009.8 1009.7 13.2
24/10:30pm 24.1 26.6 22.4 90 1.1 WNW 13 19 7 10 1011.0 1010.9 13.2
24/10:00pm 24.2 24.8 22.1 88 1.4 W 22 26 12 14 1011.8 1011.7 13.2
24/09:30pm 24.7 27.6 23.1 91 1.1 WNW 13 17 7 9 1011.2 1011.1 13.2
24/09:00pm 25.2 28.4 22.3 84 1.9 SW 9 9 5 5 1011.2 1011.1 12.8
24/08:30pm 24.9 29.6 22.0 84 1.9 CALM 0 0 0 0 1010.6 1010.5 12.8
24/08:00pm 25.3 28.7 21.0 77 2.8 ESE 4 7 2 4 1010.3 1010.2 12.8
24/07:30pm 25.3 26.8 20.5 75 3.1 S 13 17 7 9 1010.0 1009.9 12.8
24/07:00pm 26.9 28.9 22.3 76 3.1 SSW 15 20 8 11 1010.4 1010.3 12.8
24/06:30pm 26.9 28.4 22.7 78 2.8 SW 19 30 10 16 1009.6 1009.5 12.8
24/06:24pm 26.8 28.2 22.6 78 2.8 N 19 35 10 19 1009.3 1009.2 12.8
24/06:00pm 26.9 26.0 22.9 79 2.7 NNE 32 41 17 22 1007.3 1007.2 12.8
24/05:30pm 26.7 27.0 23.0 80 2.5 N 26 35 14 19 1008.8 1008.7 12.8
24/05:00pm 26.5 24.6 22.1 77 3.0 NNE 35 44 19 24 1007.9 1007.8 12.8
24/04:30pm 27.6 26.4 21.6 70 4.0 N 30 43 16 23 1008.1 1008.0 12.8
24/04:00pm 28.1 28.2 22.6 72 3.7 N 26 37 14 20 1008.4 1008.3 12.8
24/03:30pm 28.4 26.5 20.9 64 5.0 NNE 32 44 17 24 1008.9 1008.8 12.8
24/03:00pm 28.6 25.8 21.1 64 5.0 NE 37 50 20 27 1008.8 1008.7 12.8
24/02:30pm 29.6 27.4 21.5 61 5.4 NNE 35 52 19 28 1009.2 1009.1 12.8
24/02:00pm 27.7 26.5 22.2 72 3.7 NE 32 41 17 22 1010.0 1009.9 12.8
24/01:30pm 26.6 26.9 22.2 77 3.0 NE 24 33 13 18 1010.3 1010.2 12.8
24/01:00pm 24.9 26.4 22.0 84 1.9 NE 17 20 9 11 1010.5 1010.4 12.6
24/12:30pm 23.3 24.9 22.1 93 0.8 N 17 22 9 12 1010.6 1010.5 12.6
24/12:00pm 22.6 22.7 21.8 95 0.5 N 24 37 13 20 1011.6 1011.5 12.6
24/11:46am 22.4 24.7 22.1 98 0.2 NNE 13 20 7 11 1011.7 1011.6 12.6
24/11:30am 22.2 23.9 21.7 97 0.3 NNE 15 24 8 13 1012.0 1011.9 11.8
24/11:19am 22.3 24.3 21.6 96 0.5 WSW 13 32 7 17 1012.8 1012.7 6.0
24/11:11am 22.5 22.3 21.3 93 0.8 SW 24 43 13 23 1012.4 1012.3 2.4
24/11:02am 24.5 24.9 20.6 79 2.5 N 19 43 10 23 1012.5 1012.4 0.2
24/11:00am 25.1 26.2 20.4 75 3.1 NNE 15 24 8 13 1011.7 1011.6 0.2
24/10:30am 25.8 24.6 20.8 74 3.3 NE 28 43 15 23 1010.7 1010.6 0.2
24/10:15am 26.8 25.1 19.9 66 4.5 NNE 28 43 15 23 1010.9 1010.8 0.2
24/10:00am 25.2 25.3 21.9 82 2.2 N 24 48 13 26 1010.2 1010.1 0.2
24/09:57am 24.5 22.9 20.8 80 2.4 N 30 48 16 26 1010.2 1010.1 0.2
24/09:51am 25.6 24.0 20.8 75 3.2 N 30 48 16 26 1010.6 1010.5 0.2
24/09:30am 23.7 23.7 21.0 85 1.8 NNW 22 32 12 17 1011.7 1011.6 0.2
24/09:06am 24.2 25.0 20.7 81 2.3 WNW 17 26 9 14 1012.0 1011.9 0.0
24/09:00am 24.9 25.4 22.0 84 1.9 NNW 22 33 12 18 1012.0 1011.9 4.2
24/08:43am 27.1 29.1 24.0 83 2.1 N 20 28 11 15 1011.7 1011.6 2.0
24/08:30am 29.1 32.3 24.9 78 2.9 ENE 17 22 9 12 1011.1 1011.0 0.4
24/08:00am 28.9 31.1 24.0 75 3.4 ENE 19 26 10 14 1011.0 1010.9 0.4

Other formats

Comma delimited format used in spreadsheet applications
http://www.bom.gov.au/fwo/IDQ60801/IDQ60801.94260.axf

JavaScript Object Notation format (JSON) in row-major order
http://www.bom.gov.au/fwo/IDQ60801/IDQ60801.94260.json

Data quality

Most of these data are generated automatically and are frequently updated. Quality checks on data are not normally performed. It is possible for incorrect values to appear. Refer to information at About Latest Weather Observations and please check the disclaimer before using these data.